Decoded Metar for EPRZ (RZESZOW in POLAND) (IATA:RZE) | Meteo·Mobile Aviation Weather
aviador You're here:

EPRZ Decoded Metar

RZESZOW in POLAND
Report Time2018-12-15 15:30:00
UTC Time2018-12-15 16:01:35
Flight Rules mvfr MVFR
Wind070° at 14 kt
W.Decomp.*RWY 09: 12.7 kt HW 5.9 kt LCW
W.Rank070° ranks 17
Current wind is above 070° avg. (5.7)
Visibility9999 m
Phenomena:Light Snow
Clouds:Overcast 020 Hf
Expected CloudBase > 1,600 ft AGL from Temp-Dew spread
Ceiling2,000 ft
Temp-1°C (ISA -15)
Dew Point-5°C (75% RH)
AAT-8.6°C
QNH1023 hPa
Density Alt-1,414 ft
Elevation663 ft
Report Wrong Elevation
Raw Report
EPRZ 151530Z 07014KT 9999 -SN OVC020 M01/M05 Q1023=

Extra information for EPRZ:More info

Metar Taf Metar & Taf Last 4 Metars F.Rules Stats Wind Profile Meteogram Temp Stats Airport Information Weather charts Add Link Nearby VenuesMetar ALERT Operation Metar Decoded Social comments